sensor_id;sensor_type;location;lat;lon;timestamp;P1;durP1;ratioP1;P2;durP2;ratioP2
74059;SDS011;62414;53.436;8.828;2022-10-16T00:02:15;12.87;;;5.10;;
74059;SDS011;62414;53.436;8.828;2022-10-16T00:04:41;12.27;;;4.93;;
74059;SDS011;62414;53.436;8.828;2022-10-16T00:07:06;10.97;;;4.83;;
74059;SDS011;62414;53.436;8.828;2022-10-16T00:09:31;11.30;;;4.40;;
74059;SDS011;62414;53.436;8.828;2022-10-16T00:11:57;11.43;;;4.40;;
74059;SDS011;62414;53.436;8.828;2022-10-16T00:14:22;10.87;;;4.23;;
74059;SDS011;62414;53.436;8.828;2022-10-16T00:16:47;11.80;;;4.47;;
74059;SDS011;62414;53.436;8.828;2022-10-16T00:19:14;10.97;;;3.90;;
74059;SDS011;62414;53.436;8.828;2022-10-16T00:21:39;10.68;;;3.72;;
74059;SDS011;62414;53.436;8.828;2022-10-16T00:24:05;9.27;;;3.53;;
74059;SDS011;62414;53.436;8.828;2022-10-16T00:26:32;11.57;;;3.90;;
74059;SDS011;62414;53.436;8.828;2022-10-16T00:28:57;9.45;;;3.70;;
74059;SDS011;62414;53.436;8.828;2022-10-16T00:31:23;9.63;;;3.10;;
74059;SDS011;62414;53.436;8.828;2022-10-16T00:33:48;8.48;;;3.33;;
74059;SDS011;62414;53.436;8.828;2022-10-16T00:36:16;10.87;;;3.40;;
74059;SDS011;62414;53.436;8.828;2022-10-16T00:38:42;7.53;;;2.93;;
74059;SDS011;62414;53.436;8.828;2022-10-16T00:41:07;9.05;;;3.13;;
74059;SDS011;62414;53.436;8.828;2022-10-16T00:43:36;7.80;;;2.75;;
74059;SDS011;62414;53.436;8.828;2022-10-16T00:46:02;10.27;;;3.00;;
74059;SDS011;62414;53.436;8.828;2022-10-16T00:48:28;10.32;;;3.08;;
74059;SDS011;62414;53.436;8.828;2022-10-16T00:50:53;6.85;;;2.83;;
74059;SDS011;62414;53.436;8.828;2022-10-16T00:53:20;8.17;;;2.90;;
74059;SDS011;62414;53.436;8.828;2022-10-16T00:55:46;10.00;;;2.70;;
74059;SDS011;62414;53.436;8.828;2022-10-16T00:58:11;8.13;;;2.90;;
74059;SDS011;62414;53.436;8.828;2022-10-16T01:00:37;8.07;;;2.60;;
74059;SDS011;62414;53.436;8.828;2022-10-16T01:03:03;9.03;;;2.40;;
74059;SDS011;62414;53.436;8.828;2022-10-16T01:05:30;10.70;;;2.30;;
74059;SDS011;62414;53.436;8.828;2022-10-16T01:08:00;7.15;;;2.65;;
74059;SDS011;62414;53.436;8.828;2022-10-16T01:10:30;8.60;;;2.40;;
74059;SDS011;62414;53.436;8.828;2022-10-16T01:12:57;9.07;;;2.58;;
74059;SDS011;62414;53.436;8.828;2022-10-16T01:15:25;8.77;;;2.40;;
74059;SDS011;62414;53.436;8.828;2022-10-16T01:17:52;6.88;;;2.60;;
74059;SDS011;62414;53.436;8.828;2022-10-16T01:20:20;8.40;;;2.50;;
74059;SDS011;62414;53.436;8.828;2022-10-16T01:23:01;6.65;;;2.30;;
74059;SDS011;62414;53.436;8.828;2022-10-16T01:25:34;9.43;;;2.58;;
74059;SDS011;62414;53.436;8.828;2022-10-16T01:28:03;7.40;;;2.10;;
74059;SDS011;62414;53.436;8.828;2022-10-16T01:30:30;8.25;;;2.40;;
74059;SDS011;62414;53.436;8.828;2022-10-16T01:32:58;8.88;;;2.15;;
74059;SDS011;62414;53.436;8.828;2022-10-16T01:35:25;6.55;;;2.30;;
74059;SDS011;62414;53.436;8.828;2022-10-16T01:37:52;6.15;;;2.00;;
74059;SDS011;62414;53.436;8.828;2022-10-16T01:40:19;6.13;;;2.10;;
74059;SDS011;62414;53.436;8.828;2022-10-16T01:42:46;8.40;;;1.95;;
74059;SDS011;62414;53.436;8.828;2022-10-16T01:45:14;7.50;;;2.28;;
74059;SDS011;62414;53.436;8.828;2022-10-16T01:47:41;7.47;;;2.20;;
74059;SDS011;62414;53.436;8.828;2022-10-16T01:50:08;7.65;;;1.92;;
74059;SDS011;62414;53.436;8.828;2022-10-16T01:52:34;6.83;;;1.83;;
74059;SDS011;62414;53.436;8.828;2022-10-16T01:55:00;7.93;;;2.10;;
74059;SDS011;62414;53.436;8.828;2022-10-16T01:57:26;7.38;;;1.83;;
74059;SDS011;62414;53.436;8.828;2022-10-16T01:59:52;7.63;;;2.00;;
74059;SDS011;62414;53.436;8.828;2022-10-16T02:02:20;4.77;;;1.90;;
74059;SDS011;62414;53.436;8.828;2022-10-16T02:04:47;5.07;;;1.70;;
74059;SDS011;62414;53.436;8.828;2022-10-16T02:07:14;6.75;;;1.70;;
74059;SDS011;62414;53.436;8.828;2022-10-16T02:09:39;5.97;;;1.80;;
74059;SDS011;62414;53.436;8.828;2022-10-16T02:12:06;6.78;;;1.92;;
74059;SDS011;62414;53.436;8.828;2022-10-16T02:14:33;6.47;;;1.90;;
74059;SDS011;62414;53.436;8.828;2022-10-16T02:16:58;7.35;;;1.90;;
74059;SDS011;62414;53.436;8.828;2022-10-16T02:19:25;8.20;;;1.93;;
74059;SDS011;62414;53.436;8.828;2022-10-16T02:21:51;8.40;;;2.10;;
74059;SDS011;62414;53.436;8.828;2022-10-16T02:24:20;5.05;;;1.90;;
74059;SDS011;62414;53.436;8.828;2022-10-16T02:26:50;7.25;;;1.90;;
74059;SDS011;62414;53.436;8.828;2022-10-16T02:29:16;5.15;;;2.00;;
74059;SDS011;62414;53.436;8.828;2022-10-16T02:31:43;8.30;;;2.03;;
74059;SDS011;62414;53.436;8.828;2022-10-16T02:34:10;6.33;;;1.73;;
74059;SDS011;62414;53.436;8.828;2022-10-16T02:36:37;6.88;;;2.00;;
74059;SDS011;62414;53.436;8.828;2022-10-16T02:39:03;8.23;;;1.80;;
74059;SDS011;62414;53.436;8.828;2022-10-16T02:41:29;7.37;;;1.93;;
74059;SDS011;62414;53.436;8.828;2022-10-16T02:43:55;7.10;;;2.05;;
74059;SDS011;62414;53.436;8.828;2022-10-16T02:46:20;9.27;;;2.00;;
74059;SDS011;62414;53.436;8.828;2022-10-16T02:48:46;4.53;;;1.70;;
74059;SDS011;62414;53.436;8.828;2022-10-16T02:51:11;6.47;;;2.10;;
74059;SDS011;62414;53.436;8.828;2022-10-16T02:53:37;7.73;;;2.10;;
74059;SDS011;62414;53.436;8.828;2022-10-16T02:56:03;7.70;;;1.92;;
74059;SDS011;62414;53.436;8.828;2022-10-16T02:58:28;11.27;;;2.00;;
74059;SDS011;62414;53.436;8.828;2022-10-16T03:00:54;6.63;;;1.90;;
74059;SDS011;62414;53.436;8.828;2022-10-16T03:03:19;7.72;;;2.10;;
74059;SDS011;62414;53.436;8.828;2022-10-16T03:05:45;6.10;;;1.77;;
74059;SDS011;62414;53.436;8.828;2022-10-16T03:08:10;7.37;;;1.60;;
74059;SDS011;62414;53.436;8.828;2022-10-16T03:10:37;5.85;;;1.80;;
74059;SDS011;62414;53.436;8.828;2022-10-16T03:13:02;5.73;;;1.87;;
74059;SDS011;62414;53.436;8.828;2022-10-16T03:15:28;6.93;;;2.00;;
74059;SDS011;62414;53.436;8.828;2022-10-16T03:17:53;6.50;;;1.70;;
74059;SDS011;62414;53.436;8.828;2022-10-16T03:20:18;6.67;;;1.80;;
74059;SDS011;62414;53.436;8.828;2022-10-16T03:22:43;7.87;;;1.93;;
74059;SDS011;62414;53.436;8.828;2022-10-16T03:25:09;5.97;;;1.90;;
74059;SDS011;62414;53.436;8.828;2022-10-16T03:27:35;6.87;;;1.73;;
74059;SDS011;62414;53.436;8.828;2022-10-16T03:30:01;5.00;;;1.80;;
74059;SDS011;62414;53.436;8.828;2022-10-16T03:32:26;9.70;;;1.90;;
74059;SDS011;62414;53.436;8.828;2022-10-16T03:34:51;7.07;;;1.80;;
74059;SDS011;62414;53.436;8.828;2022-10-16T03:37:16;5.77;;;1.77;;
74059;SDS011;62414;53.436;8.828;2022-10-16T03:39:42;7.53;;;1.60;;
74059;SDS011;62414;53.436;8.828;2022-10-16T03:42:07;6.07;;;1.60;;
74059;SDS011;62414;53.436;8.828;2022-10-16T03:44:33;6.38;;;1.80;;
74059;SDS011;62414;53.436;8.828;2022-10-16T03:46:59;6.50;;;1.50;;
74059;SDS011;62414;53.436;8.828;2022-10-16T03:49:24;6.60;;;1.80;;
74059;SDS011;62414;53.436;8.828;2022-10-16T03:51:49;6.75;;;1.58;;
74059;SDS011;62414;53.436;8.828;2022-10-16T03:54:14;6.80;;;2.00;;
74059;SDS011;62414;53.436;8.828;2022-10-16T03:56:40;9.90;;;1.63;;
74059;SDS011;62414;53.436;8.828;2022-10-16T03:59:05;5.17;;;1.53;;
74059;SDS011;62414;53.436;8.828;2022-10-16T04:01:31;10.63;;;1.80;;
74059;SDS011;62414;53.436;8.828;2022-10-16T04:03:57;5.40;;;1.55;;
74059;SDS011;62414;53.436;8.828;2022-10-16T04:06:22;4.67;;;1.60;;
74059;SDS011;62414;53.436;8.828;2022-10-16T04:08:47;7.07;;;1.80;;
74059;SDS011;62414;53.436;8.828;2022-10-16T04:11:12;9.10;;;1.73;;
74059;SDS011;62414;53.436;8.828;2022-10-16T04:13:38;7.40;;;1.97;;
74059;SDS011;62414;53.436;8.828;2022-10-16T04:16:03;4.90;;;1.53;;
74059;SDS011;62414;53.436;8.828;2022-10-16T04:18:30;6.53;;;1.80;;
74059;SDS011;62414;53.436;8.828;2022-10-16T04:20:55;5.23;;;1.53;;
74059;SDS011;62414;53.436;8.828;2022-10-16T04:23:20;6.47;;;2.10;;
74059;SDS011;62414;53.436;8.828;2022-10-16T04:25:46;6.93;;;1.70;;
74059;SDS011;62414;53.436;8.828;2022-10-16T04:28:11;7.40;;;1.80;;
74059;SDS011;62414;53.436;8.828;2022-10-16T04:30:37;6.17;;;1.80;;
74059;SDS011;62414;53.436;8.828;2022-10-16T04:33:02;4.95;;;1.90;;
74059;SDS011;62414;53.436;8.828;2022-10-16T04:35:29;5.00;;;1.80;;
74059;SDS011;62414;53.436;8.828;2022-10-16T04:37:56;5.53;;;1.83;;
74059;SDS011;62414;53.436;8.828;2022-10-16T04:40:21;8.38;;;2.13;;
74059;SDS011;62414;53.436;8.828;2022-10-16T04:42:47;4.77;;;1.90;;
74059;SDS011;62414;53.436;8.828;2022-10-16T04:45:12;7.60;;;2.20;;
74059;SDS011;62414;53.436;8.828;2022-10-16T04:47:37;6.78;;;2.25;;
74059;SDS011;62414;53.436;8.828;2022-10-16T04:50:03;5.83;;;2.30;;
74059;SDS011;62414;53.436;8.828;2022-10-16T04:52:29;5.97;;;2.37;;
74059;SDS011;62414;53.436;8.828;2022-10-16T04:54:54;9.52;;;2.38;;
74059;SDS011;62414;53.436;8.828;2022-10-16T04:57:20;7.57;;;2.30;;
74059;SDS011;62414;53.436;8.828;2022-10-16T04:59:45;7.50;;;2.40;;
74059;SDS011;62414;53.436;8.828;2022-10-16T05:02:10;6.50;;;2.70;;
74059;SDS011;62414;53.436;8.828;2022-10-16T05:04:36;6.47;;;2.57;;
74059;SDS011;62414;53.436;8.828;2022-10-16T05:07:01;8.43;;;2.73;;
74059;SDS011;62414;53.436;8.828;2022-10-16T05:09:28;9.07;;;3.10;;
74059;SDS011;62414;53.436;8.828;2022-10-16T05:11:53;7.00;;;2.95;;
74059;SDS011;62414;53.436;8.828;2022-10-16T05:14:19;9.27;;;3.43;;
74059;SDS011;62414;53.436;8.828;2022-10-16T05:16:44;8.00;;;3.20;;
74059;SDS011;62414;53.436;8.828;2022-10-16T05:19:09;7.63;;;3.03;;
74059;SDS011;62414;53.436;8.828;2022-10-16T05:21:35;7.90;;;3.57;;
74059;SDS011;62414;53.436;8.828;2022-10-16T05:24:00;8.80;;;3.80;;
74059;SDS011;62414;53.436;8.828;2022-10-16T05:26:26;8.73;;;3.80;;
74059;SDS011;62414;53.436;8.828;2022-10-16T05:28:52;10.15;;;4.07;;
74059;SDS011;62414;53.436;8.828;2022-10-16T05:31:17;9.83;;;4.23;;
74059;SDS011;62414;53.436;8.828;2022-10-16T05:33:42;10.53;;;4.20;;
74059;SDS011;62414;53.436;8.828;2022-10-16T05:36:08;14.20;;;4.20;;
74059;SDS011;62414;53.436;8.828;2022-10-16T05:38:34;14.82;;;4.90;;
74059;SDS011;62414;53.436;8.828;2022-10-16T05:40:59;12.63;;;4.30;;
74059;SDS011;62414;53.436;8.828;2022-10-16T05:43:26;10.00;;;4.60;;
74059;SDS011;62414;53.436;8.828;2022-10-16T05:45:55;9.02;;;4.50;;
74059;SDS011;62414;53.436;8.828;2022-10-16T05:48:20;11.20;;;4.70;;
74059;SDS011;62414;53.436;8.828;2022-10-16T05:50:45;13.10;;;4.80;;
74059;SDS011;62414;53.436;8.828;2022-10-16T05:53:11;11.87;;;4.90;;
74059;SDS011;62414;53.436;8.828;2022-10-16T05:55:36;12.07;;;5.07;;
74059;SDS011;62414;53.436;8.828;2022-10-16T05:58:01;11.33;;;5.17;;
74059;SDS011;62414;53.436;8.828;2022-10-16T06:00:28;11.80;;;5.13;;
74059;SDS011;62414;53.436;8.828;2022-10-16T06:02:53;10.43;;;5.15;;
74059;SDS011;62414;53.436;8.828;2022-10-16T06:05:18;10.23;;;4.90;;
74059;SDS011;62414;53.436;8.828;2022-10-16T06:07:43;11.10;;;5.43;;
74059;SDS011;62414;53.436;8.828;2022-10-16T06:10:09;16.70;;;5.70;;
74059;SDS011;62414;53.436;8.828;2022-10-16T06:12:34;12.63;;;5.57;;
74059;SDS011;62414;53.436;8.828;2022-10-16T06:14:59;15.33;;;6.13;;
74059;SDS011;62414;53.436;8.828;2022-10-16T06:17:26;11.87;;;5.57;;
74059;SDS011;62414;53.436;8.828;2022-10-16T06:19:51;11.83;;;5.90;;
74059;SDS011;62414;53.436;8.828;2022-10-16T06:22:16;14.55;;;6.30;;
74059;SDS011;62414;53.436;8.828;2022-10-16T06:24:41;14.50;;;6.30;;
74059;SDS011;62414;53.436;8.828;2022-10-16T06:27:07;14.93;;;6.40;;
74059;SDS011;62414;53.436;8.828;2022-10-16T06:29:32;14.77;;;6.33;;
74059;SDS011;62414;53.436;8.828;2022-10-16T06:31:57;13.70;;;6.23;;
74059;SDS011;62414;53.436;8.828;2022-10-16T06:34:24;16.80;;;6.73;;
74059;SDS011;62414;53.436;8.828;2022-10-16T06:36:49;13.50;;;6.63;;
74059;SDS011;62414;53.436;8.828;2022-10-16T06:39:14;18.60;;;7.37;;
74059;SDS011;62414;53.436;8.828;2022-10-16T06:41:40;13.90;;;7.10;;
74059;SDS011;62414;53.436;8.828;2022-10-16T06:44:28;15.60;;;7.60;;
74059;SDS011;62414;53.436;8.828;2022-10-16T06:46:53;17.23;;;7.63;;
74059;SDS011;62414;53.436;8.828;2022-10-16T06:49:18;17.47;;;7.40;;
74059;SDS011;62414;53.436;8.828;2022-10-16T06:51:45;17.43;;;7.83;;
74059;SDS011;62414;53.436;8.828;2022-10-16T06:54:10;16.25;;;7.60;;
74059;SDS011;62414;53.436;8.828;2022-10-16T06:56:36;16.43;;;8.00;;
74059;SDS011;62414;53.436;8.828;2022-10-16T06:59:01;16.30;;;7.65;;
74059;SDS011;62414;53.436;8.828;2022-10-16T07:01:27;16.30;;;7.27;;
74059;SDS011;62414;53.436;8.828;2022-10-16T07:03:52;17.03;;;7.33;;
74059;SDS011;62414;53.436;8.828;2022-10-16T07:06:18;14.50;;;7.67;;
74059;SDS011;62414;53.436;8.828;2022-10-16T07:08:46;15.23;;;7.55;;
74059;SDS011;62414;53.436;8.828;2022-10-16T07:11:12;14.23;;;7.05;;
74059;SDS011;62414;53.436;8.828;2022-10-16T07:13:38;15.53;;;7.00;;
74059;SDS011;62414;53.436;8.828;2022-10-16T07:16:04;13.90;;;6.72;;
74059;SDS011;62414;53.436;8.828;2022-10-16T07:18:29;12.43;;;6.53;;
74059;SDS011;62414;53.436;8.828;2022-10-16T07:21:02;14.93;;;6.57;;
74059;SDS011;62414;53.436;8.828;2022-10-16T07:23:27;13.10;;;6.40;;
74059;SDS011;62414;53.436;8.828;2022-10-16T07:25:54;13.00;;;6.73;;
74059;SDS011;62414;53.436;8.828;2022-10-16T07:28:19;13.77;;;6.50;;
74059;SDS011;62414;53.436;8.828;2022-10-16T07:30:45;12.57;;;6.47;;
74059;SDS011;62414;53.436;8.828;2022-10-16T07:33:10;12.93;;;6.60;;
74059;SDS011;62414;53.436;8.828;2022-10-16T07:35:35;14.17;;;6.67;;
74059;SDS011;62414;53.436;8.828;2022-10-16T07:38:00;12.17;;;5.87;;
74059;SDS011;62414;53.436;8.828;2022-10-16T07:40:26;11.23;;;5.70;;
74059;SDS011;62414;53.436;8.828;2022-10-16T07:42:52;14.03;;;6.03;;
74059;SDS011;62414;53.436;8.828;2022-10-16T07:45:18;10.25;;;5.53;;
74059;SDS011;62414;53.436;8.828;2022-10-16T07:47:43;11.73;;;5.60;;
74059;SDS011;62414;53.436;8.828;2022-10-16T07:50:08;12.60;;;5.67;;
74059;SDS011;62414;53.436;8.828;2022-10-16T07:52:33;10.97;;;5.43;;
74059;SDS011;62414;53.436;8.828;2022-10-16T07:54:59;10.57;;;5.10;;
74059;SDS011;62414;53.436;8.828;2022-10-16T07:57:24;9.48;;;4.90;;
74059;SDS011;62414;53.436;8.828;2022-10-16T07:59:50;13.47;;;4.93;;
74059;SDS011;62414;53.436;8.828;2022-10-16T08:02:16;12.90;;;4.50;;
74059;SDS011;62414;53.436;8.828;2022-10-16T08:04:41;9.33;;;4.40;;
74059;SDS011;62414;53.436;8.828;2022-10-16T08:07:07;9.37;;;4.40;;
74059;SDS011;62414;53.436;8.828;2022-10-16T08:09:32;8.93;;;4.37;;
74059;SDS011;62414;53.436;8.828;2022-10-16T08:11:57;9.20;;;4.17;;
74059;SDS011;62414;53.436;8.828;2022-10-16T08:14:22;11.40;;;3.87;;
74059;SDS011;62414;53.436;8.828;2022-10-16T08:16:49;8.60;;;4.10;;
74059;SDS011;62414;53.436;8.828;2022-10-16T08:19:14;8.47;;;4.00;;
74059;SDS011;62414;53.436;8.828;2022-10-16T08:21:39;8.40;;;3.87;;
74059;SDS011;62414;53.436;8.828;2022-10-16T08:24:05;10.40;;;4.22;;
74059;SDS011;62414;53.436;8.828;2022-10-16T08:26:30;11.57;;;4.23;;
74059;SDS011;62414;53.436;8.828;2022-10-16T08:28:55;8.57;;;4.00;;
74059;SDS011;62414;53.436;8.828;2022-10-16T08:31:21;8.17;;;4.27;;
74059;SDS011;62414;53.436;8.828;2022-10-16T08:33:48;9.77;;;4.27;;
74059;SDS011;62414;53.436;8.828;2022-10-16T08:36:13;8.27;;;3.83;;
74059;SDS011;62414;53.436;8.828;2022-10-16T08:38:39;9.82;;;4.10;;
74059;SDS011;62414;53.436;8.828;2022-10-16T08:41:17;8.03;;;4.10;;
74059;SDS011;62414;53.436;8.828;2022-10-16T08:43:52;11.45;;;3.90;;
74059;SDS011;62414;53.436;8.828;2022-10-16T08:46:21;9.90;;;4.57;;
74059;SDS011;62414;53.436;8.828;2022-10-16T08:48:51;9.57;;;3.77;;
74059;SDS011;62414;53.436;8.828;2022-10-16T08:51:19;7.35;;;3.70;;
74059;SDS011;62414;53.436;8.828;2022-10-16T08:53:46;10.73;;;3.53;;
74059;SDS011;62414;53.436;8.828;2022-10-16T08:56:14;8.70;;;3.67;;
74059;SDS011;62414;53.436;8.828;2022-10-16T08:58:39;10.13;;;3.40;;
74059;SDS011;62414;53.436;8.828;2022-10-16T09:01:10;9.40;;;3.33;;
74059;SDS011;62414;53.436;8.828;2022-10-16T09:03:43;8.23;;;3.35;;
74059;SDS011;62414;53.436;8.828;2022-10-16T09:06:19;8.43;;;3.20;;
74059;SDS011;62414;53.436;8.828;2022-10-16T09:08:51;9.98;;;3.05;;
74059;SDS011;62414;53.436;8.828;2022-10-16T09:11:21;9.13;;;3.40;;
74059;SDS011;62414;53.436;8.828;2022-10-16T09:13:50;7.60;;;3.03;;
74059;SDS011;62414;53.436;8.828;2022-10-16T09:16:18;6.68;;;2.95;;
74059;SDS011;62414;53.436;8.828;2022-10-16T09:18:45;10.48;;;2.67;;
74059;SDS011;62414;53.436;8.828;2022-10-16T09:21:15;10.02;;;2.80;;
74059;SDS011;62414;53.436;8.828;2022-10-16T09:23:42;8.30;;;2.73;;
74059;SDS011;62414;53.436;8.828;2022-10-16T09:26:09;8.55;;;2.50;;
74059;SDS011;62414;53.436;8.828;2022-10-16T09:28:36;8.65;;;2.80;;
74059;SDS011;62414;53.436;8.828;2022-10-16T09:31:01;8.97;;;2.40;;
74059;SDS011;62414;53.436;8.828;2022-10-16T09:33:28;6.33;;;2.10;;
74059;SDS011;62414;53.436;8.828;2022-10-16T09:35:55;7.13;;;2.00;;
74059;SDS011;62414;53.436;8.828;2022-10-16T09:38:22;6.45;;;2.40;;
74059;SDS011;62414;53.436;8.828;2022-10-16T09:40:49;9.10;;;2.53;;
74059;SDS011;62414;53.436;8.828;2022-10-16T09:43:20;6.73;;;2.10;;
74059;SDS011;62414;53.436;8.828;2022-10-16T09:45:53;6.68;;;1.75;;
74059;SDS011;62414;53.436;8.828;2022-10-16T09:48:18;8.60;;;1.67;;
74059;SDS011;62414;53.436;8.828;2022-10-16T09:50:54;5.28;;;1.60;;
74059;SDS011;62414;53.436;8.828;2022-10-16T09:53:20;9.73;;;3.57;;
74059;SDS011;62414;53.436;8.828;2022-10-16T09:55:52;7.40;;;2.30;;
74059;SDS011;62414;53.436;8.828;2022-10-16T09:58:18;7.83;;;1.73;;
74059;SDS011;62414;53.436;8.828;2022-10-16T10:00:48;5.30;;;2.08;;
74059;SDS011;62414;53.436;8.828;2022-10-16T10:03:17;8.18;;;1.58;;
74059;SDS011;62414;53.436;8.828;2022-10-16T10:05:47;8.32;;;1.42;;
74059;SDS011;62414;53.436;8.828;2022-10-16T10:08:12;6.25;;;1.70;;
74059;SDS011;62414;53.436;8.828;2022-10-16T10:10:41;5.57;;;1.60;;
74059;SDS011;62414;53.436;8.828;2022-10-16T10:13:15;6.55;;;1.25;;
74059;SDS011;62414;53.436;8.828;2022-10-16T10:15:41;5.68;;;1.40;;
74059;SDS011;62414;53.436;8.828;2022-10-16T10:18:15;6.73;;;1.30;;
74059;SDS011;62414;53.436;8.828;2022-10-16T10:20:40;7.38;;;1.30;;
74059;SDS011;62414;53.436;8.828;2022-10-16T10:23:15;10.17;;;1.30;;
74059;SDS011;62414;53.436;8.828;2022-10-16T10:25:49;6.20;;;1.20;;
74059;SDS011;62414;53.436;8.828;2022-10-16T10:28:24;9.20;;;1.10;;
74059;SDS011;62414;53.436;8.828;2022-10-16T10:30:54;6.37;;;1.10;;
74059;SDS011;62414;53.436;8.828;2022-10-16T10:33:24;5.25;;;1.20;;
74059;SDS011;62414;53.436;8.828;2022-10-16T10:35:52;5.78;;;1.38;;
74059;SDS011;62414;53.436;8.828;2022-10-16T10:38:21;5.00;;;1.20;;
74059;SDS011;62414;53.436;8.828;2022-10-16T10:40:49;5.45;;;1.02;;
74059;SDS011;62414;53.436;8.828;2022-10-16T10:43:19;7.93;;;1.63;;
74059;SDS011;62414;53.436;8.828;2022-10-16T10:45:48;6.82;;;1.20;;
74059;SDS011;62414;53.436;8.828;2022-10-16T10:48:20;9.02;;;1.30;;
74059;SDS011;62414;53.436;8.828;2022-10-16T10:50:47;4.88;;;0.90;;
74059;SDS011;62414;53.436;8.828;2022-10-16T10:53:19;6.75;;;1.25;;
74059;SDS011;62414;53.436;8.828;2022-10-16T10:55:48;4.20;;;1.03;;
74059;SDS011;62414;53.436;8.828;2022-10-16T10:58:29;5.28;;;1.10;;
74059;SDS011;62414;53.436;8.828;2022-10-16T11:01:03;10.30;;;1.52;;
74059;SDS011;62414;53.436;8.828;2022-10-16T11:03:32;8.23;;;1.40;;
74059;SDS011;62414;53.436;8.828;2022-10-16T11:06:01;5.47;;;1.00;;
74059;SDS011;62414;53.436;8.828;2022-10-16T11:08:31;5.57;;;1.70;;
74059;SDS011;62414;53.436;8.828;2022-10-16T11:10:59;5.15;;;1.00;;
74059;SDS011;62414;53.436;8.828;2022-10-16T11:13:27;5.63;;;0.90;;
74059;SDS011;62414;53.436;8.828;2022-10-16T11:15:54;7.35;;;1.60;;
74059;SDS011;62414;53.436;8.828;2022-10-16T11:18:26;6.95;;;2.15;;
74059;SDS011;62414;53.436;8.828;2022-10-16T11:20:53;6.93;;;1.07;;
74059;SDS011;62414;53.436;8.828;2022-10-16T11:23:21;6.45;;;2.15;;
74059;SDS011;62414;53.436;8.828;2022-10-16T11:25:48;6.25;;;1.13;;
74059;SDS011;62414;53.436;8.828;2022-10-16T11:28:14;6.30;;;0.90;;
74059;SDS011;62414;53.436;8.828;2022-10-16T11:30:41;5.35;;;0.70;;
74059;SDS011;62414;53.436;8.828;2022-10-16T11:33:13;5.38;;;0.80;;
74059;SDS011;62414;53.436;8.828;2022-10-16T11:35:49;8.27;;;0.90;;
74059;SDS011;62414;53.436;8.828;2022-10-16T11:38:19;8.17;;;1.10;;
74059;SDS011;62414;53.436;8.828;2022-10-16T11:40:47;5.68;;;0.65;;
74059;SDS011;62414;53.436;8.828;2022-10-16T11:43:14;4.95;;;0.80;;
74059;SDS011;62414;53.436;8.828;2022-10-16T11:45:41;4.68;;;0.70;;
74059;SDS011;62414;53.436;8.828;2022-10-16T11:48:09;6.13;;;0.82;;
74059;SDS011;62414;53.436;8.828;2022-10-16T11:50:38;6.43;;;1.10;;
74059;SDS011;62414;53.436;8.828;2022-10-16T11:53:09;6.22;;;1.02;;
74059;SDS011;62414;53.436;8.828;2022-10-16T11:55:36;5.18;;;0.85;;
74059;SDS011;62414;53.436;8.828;2022-10-16T11:58:03;6.60;;;1.20;;
74059;SDS011;62414;53.436;8.828;2022-10-16T12:00:31;5.53;;;0.80;;
74059;SDS011;62414;53.436;8.828;2022-10-16T12:03:00;6.40;;;1.00;;
74059;SDS011;62414;53.436;8.828;2022-10-16T12:05:29;8.07;;;1.02;;
74059;SDS011;62414;53.436;8.828;2022-10-16T12:08:01;7.82;;;1.08;;
74059;SDS011;62414;53.436;8.828;2022-10-16T12:10:29;11.40;;;1.38;;
74059;SDS011;62414;53.436;8.828;2022-10-16T12:12:55;6.10;;;1.03;;
74059;SDS011;62414;53.436;8.828;2022-10-16T12:15:22;6.13;;;0.95;;
74059;SDS011;62414;53.436;8.828;2022-10-16T12:17:47;6.33;;;1.10;;
74059;SDS011;62414;53.436;8.828;2022-10-16T12:20:18;7.13;;;1.17;;
74059;SDS011;62414;53.436;8.828;2022-10-16T12:22:47;6.15;;;1.10;;
74059;SDS011;62414;53.436;8.828;2022-10-16T12:25:20;7.18;;;1.08;;
74059;SDS011;62414;53.436;8.828;2022-10-16T12:27:52;5.65;;;0.90;;
74059;SDS011;62414;53.436;8.828;2022-10-16T12:30:20;6.38;;;1.20;;
74059;SDS011;62414;53.436;8.828;2022-10-16T12:32:52;6.53;;;1.03;;
74059;SDS011;62414;53.436;8.828;2022-10-16T12:35:18;8.38;;;1.05;;
74059;SDS011;62414;53.436;8.828;2022-10-16T12:37:44;6.78;;;1.10;;
74059;SDS011;62414;53.436;8.828;2022-10-16T12:40:13;6.32;;;1.00;;
74059;SDS011;62414;53.436;8.828;2022-10-16T12:42:39;7.37;;;1.10;;
74059;SDS011;62414;53.436;8.828;2022-10-16T12:45:21;6.35;;;1.33;;
74059;SDS011;62414;53.436;8.828;2022-10-16T12:47:49;8.67;;;1.10;;
74059;SDS011;62414;53.436;8.828;2022-10-16T12:50:28;9.02;;;1.50;;
74059;SDS011;62414;53.436;8.828;2022-10-16T12:52:55;7.45;;;1.10;;
74059;SDS011;62414;53.436;8.828;2022-10-16T12:55:21;9.37;;;1.20;;
74059;SDS011;62414;53.436;8.828;2022-10-16T12:57:50;5.95;;;1.30;;
74059;SDS011;62414;53.436;8.828;2022-10-16T13:00:25;6.03;;;1.50;;
74059;SDS011;62414;53.436;8.828;2022-10-16T13:03:00;5.88;;;1.30;;
74059;SDS011;62414;53.436;8.828;2022-10-16T13:05:32;6.90;;;1.27;;
74059;SDS011;62414;53.436;8.828;2022-10-16T13:08:06;8.25;;;1.45;;
74059;SDS011;62414;53.436;8.828;2022-10-16T13:10:36;11.27;;;2.30;;
74059;SDS011;62414;53.436;8.828;2022-10-16T13:13:13;6.28;;;1.10;;
74059;SDS011;62414;53.436;8.828;2022-10-16T13:15:47;6.18;;;1.58;;
74059;SDS011;62414;53.436;8.828;2022-10-16T13:18:18;8.10;;;1.30;;
74059;SDS011;62414;53.436;8.828;2022-10-16T13:20:51;5.88;;;1.00;;
74059;SDS011;62414;53.436;8.828;2022-10-16T13:23:21;8.18;;;1.00;;
74059;SDS011;62414;53.436;8.828;2022-10-16T13:25:51;6.03;;;1.30;;
74059;SDS011;62414;53.436;8.828;2022-10-16T13:28:22;7.05;;;1.20;;
74059;SDS011;62414;53.436;8.828;2022-10-16T13:30:54;8.00;;;1.50;;
74059;SDS011;62414;53.436;8.828;2022-10-16T13:33:25;8.55;;;1.20;;
74059;SDS011;62414;53.436;8.828;2022-10-16T13:35:55;7.03;;;1.20;;
74059;SDS011;62414;53.436;8.828;2022-10-16T13:38:21;7.28;;;1.05;;
74059;SDS011;62414;53.436;8.828;2022-10-16T13:40:54;7.03;;;1.33;;
74059;SDS011;62414;53.436;8.828;2022-10-16T13:43:20;8.73;;;1.53;;
74059;SDS011;62414;53.436;8.828;2022-10-16T13:45:54;4.72;;;1.20;;
74059;SDS011;62414;53.436;8.828;2022-10-16T13:48:19;5.28;;;1.30;;
74059;SDS011;62414;53.436;8.828;2022-10-16T13:50:45;6.47;;;1.40;;
74059;SDS011;62414;53.436;8.828;2022-10-16T13:53:12;7.83;;;1.53;;
74059;SDS011;62414;53.436;8.828;2022-10-16T13:55:37;7.05;;;1.30;;
74059;SDS011;62414;53.436;8.828;2022-10-16T13:58:07;8.53;;;2.77;;
74059;SDS011;62414;53.436;8.828;2022-10-16T14:00:32;8.25;;;2.05;;
74059;SDS011;62414;53.436;8.828;2022-10-16T14:03:00;7.80;;;1.90;;
74059;SDS011;62414;53.436;8.828;2022-10-16T14:05:26;7.65;;;2.10;;
74059;SDS011;62414;53.436;8.828;2022-10-16T14:07:52;6.60;;;1.23;;
74059;SDS011;62414;53.436;8.828;2022-10-16T14:10:20;9.23;;;1.75;;
74059;SDS011;62414;53.436;8.828;2022-10-16T14:12:53;9.15;;;2.30;;
74059;SDS011;62414;53.436;8.828;2022-10-16T14:15:19;9.60;;;2.25;;
74059;SDS011;62414;53.436;8.828;2022-10-16T14:17:48;7.83;;;1.80;;
74059;SDS011;62414;53.436;8.828;2022-10-16T14:20:16;4.65;;;1.05;;
74059;SDS011;62414;53.436;8.828;2022-10-16T14:22:42;12.20;;;2.90;;
74059;SDS011;62414;53.436;8.828;2022-10-16T14:25:21;7.18;;;1.48;;
74059;SDS011;62414;53.436;8.828;2022-10-16T14:27:56;7.20;;;1.30;;
74059;SDS011;62414;53.436;8.828;2022-10-16T14:30:22;5.97;;;1.00;;
74059;SDS011;62414;53.436;8.828;2022-10-16T14:32:54;6.83;;;1.70;;
74059;SDS011;62414;53.436;8.828;2022-10-16T14:35:26;6.57;;;1.48;;
74059;SDS011;62414;53.436;8.828;2022-10-16T14:37:52;8.40;;;1.38;;
74059;SDS011;62414;53.436;8.828;2022-10-16T14:40:17;7.97;;;1.30;;
74059;SDS011;62414;53.436;8.828;2022-10-16T14:42:43;6.43;;;1.00;;
74059;SDS011;62414;53.436;8.828;2022-10-16T14:45:09;6.40;;;1.17;;
74059;SDS011;62414;53.436;8.828;2022-10-16T14:47:35;9.47;;;1.70;;